createdAt,value
2023-01-26T00:01:50.143Z,97.40
2023-01-26T00:04:18.094Z,96.60
2023-01-26T00:06:48.832Z,92.50
2023-01-26T00:09:16.687Z,90.30
2023-01-26T00:11:47.296Z,93.70
2023-01-26T00:14:15.158Z,96.20
2023-01-26T00:17:07.401Z,96.20
2023-01-26T00:19:37.552Z,95.30
2023-01-26T00:22:05.382Z,95.10
2023-01-26T00:24:36.062Z,94.00
2023-01-26T00:27:03.981Z,93.40
2023-01-26T00:29:37.865Z,93.40
2023-01-26T00:32:12.501Z,93.60
2023-01-26T00:34:46.701Z,91.20
2023-01-26T00:37:14.540Z,89.30
2023-01-26T00:39:46.980Z,93.20
2023-01-26T00:42:17.757Z,93.70
2023-01-26T00:44:45.773Z,93.60
2023-01-26T00:47:18.717Z,93.70
2023-01-26T00:49:54.353Z,93.60
2023-01-26T00:52:22.229Z,93.10
2023-01-26T00:54:56.095Z,92.50
2023-01-26T00:57:24.116Z,93.00
2023-01-26T00:59:55.005Z,92.80
2023-01-26T01:02:24.280Z,92.80
2023-01-26T01:05:06.139Z,92.90
2023-01-26T01:07:34.071Z,92.90
2023-01-26T01:10:05.158Z,92.50
2023-01-26T01:12:40.215Z,91.60
2023-01-26T01:15:09.553Z,92.90
2023-01-26T01:21:28.700Z,92.90
2023-01-26T01:23:56.584Z,91.20
2023-01-26T01:26:27.613Z,92.60
2023-01-26T01:28:57.246Z,93.40
2023-01-26T01:31:26.149Z,93.40
2023-01-26T01:34:00.057Z,93.50
2023-01-26T01:36:31.230Z,93.40
2023-01-26T01:38:59.187Z,93.20
2023-01-26T01:44:24.089Z,93.20
2023-01-26T01:46:58.209Z,93.00
2023-01-26T01:49:38.243Z,92.70
2023-01-26T01:52:10.800Z,90.80
2023-01-26T01:54:41.106Z,92.80
2023-01-26T01:57:15.787Z,93.30
2023-01-26T01:59:45.987Z,92.80
2023-01-26T02:02:15.316Z,93.20
2023-01-26T02:07:29.864Z,93.00
2023-01-26T02:10:32.140Z,92.90
2023-01-26T02:13:07.218Z,92.90
2023-01-26T02:15:35.473Z,90.50
2023-01-26T02:18:11.372Z,92.80
2023-01-26T02:20:55.781Z,92.70
2023-01-26T02:23:41.641Z,92.60
2023-01-26T02:26:16.406Z,85.70
2023-01-26T02:29:00.814Z,86.90
2023-01-26T02:31:29.118Z,91.20
2023-01-26T02:33:59.530Z,90.40
2023-01-26T02:36:30.640Z,92.50
2023-01-26T02:39:26.284Z,89.70
2023-01-26T02:42:30.958Z,92.80
2023-01-26T02:45:14.137Z,89.30
2023-01-26T02:47:45.298Z,90.80
2023-01-26T02:50:12.845Z,92.30
2023-01-26T02:52:41.237Z,90.70
2023-01-26T02:55:22.774Z,90.20
2023-01-26T02:57:55.977Z,91.80
2023-01-26T03:00:28.886Z,91.40
2023-01-26T03:03:10.827Z,90.00
2023-01-26T03:05:41.894Z,90.10
2023-01-26T03:08:10.190Z,92.20
2023-01-26T03:10:38.170Z,93.50
2023-01-26T03:13:07.445Z,90.20
2023-01-26T03:15:54.694Z,92.60
2023-01-26T03:18:42.840Z,92.10
2023-01-26T03:21:37.964Z,91.40
2023-01-26T03:24:25.215Z,89.70
2023-01-26T03:27:16.835Z,94.10
2023-01-26T03:29:46.286Z,91.70
2023-01-26T03:32:16.920Z,91.80
2023-01-26T03:34:44.832Z,91.50
2023-01-26T03:37:15.466Z,94.80
2023-01-26T03:40:01.201Z,90.90
2023-01-26T03:42:49.791Z,90.10
2023-01-26T03:45:47.823Z,90.50
2023-01-26T03:48:36.363Z,91.20
2023-01-26T03:51:31.260Z,90.90
2023-01-26T03:54:16.671Z,92.50
2023-01-26T03:56:44.598Z,92.90
2023-01-26T03:59:15.136Z,90.50
2023-01-26T04:02:05.897Z,92.50
2023-01-26T04:04:51.071Z,92.60
2023-01-26T04:07:47.153Z,93.30
2023-01-26T04:10:20.924Z,90.10
2023-01-26T04:13:12.202Z,92.10
2023-01-26T04:16:08.009Z,93.10
2023-01-26T04:19:00.930Z,91.10
2023-01-26T04:21:35.987Z,92.40
2023-01-26T04:24:09.576Z,93.00
2023-01-26T04:26:40.975Z,91.20
2023-01-26T04:29:13.424Z,92.50
2023-01-26T04:31:44.687Z,94.30
2023-01-26T04:34:16.919Z,94.20
2023-01-26T04:36:49.281Z,91.20
2023-01-26T04:39:22.980Z,90.80
2023-01-26T04:41:50.856Z,92.80
2023-01-26T04:44:18.768Z,90.80
2023-01-26T04:46:48.956Z,91.20
2023-01-26T04:49:18.290Z,92.00
2023-01-26T04:51:46.166Z,95.40
2023-01-26T04:54:14.042Z,92.40
2023-01-26T04:56:41.900Z,91.90
2023-01-26T04:59:15.625Z,92.30
2023-01-26T05:01:43.762Z,95.60
2023-01-26T05:04:15.802Z,95.80
2023-01-26T05:06:45.170Z,92.20
2023-01-26T05:09:13.056Z,92.20
2023-01-26T05:11:41.019Z,93.00
2023-01-26T05:14:12.056Z,93.70
2023-01-26T05:16:46.021Z,92.00
2023-01-26T05:19:33.587Z,95.10
2023-01-26T05:22:05.652Z,95.00
2023-01-26T05:24:39.745Z,95.50
2023-01-26T05:27:25.690Z,95.40
2023-01-26T05:30:00.467Z,94.70
2023-01-26T05:32:31.266Z,91.90
2023-01-26T05:35:08.952Z,91.60
2023-01-26T05:37:45.571Z,92.20
2023-01-26T05:40:14.394Z,92.80
2023-01-26T05:42:44.126Z,92.40
2023-01-26T05:45:12.234Z,94.80
2023-01-26T05:47:40.370Z,95.10
2023-01-26T05:50:09.131Z,94.50
2023-01-26T05:52:42.444Z,95.10
2023-01-26T05:55:13.266Z,95.50
2023-01-26T05:57:49.853Z,95.30
2023-01-26T06:00:18.656Z,95.60
2023-01-26T06:02:52.821Z,95.30
2023-01-26T06:05:30.694Z,93.10
2023-01-26T06:07:59.882Z,91.10
2023-01-26T06:10:27.736Z,91.60
2023-01-26T06:15:43.869Z,91.20
2023-01-26T06:18:20.528Z,91.70
2023-01-26T06:20:48.383Z,91.30
2023-01-26T06:23:22.893Z,92.70
2023-01-26T06:26:00.601Z,96.00
2023-01-26T06:28:32.142Z,93.50
2023-01-26T06:31:04.138Z,93.70
2023-01-26T06:33:34.281Z,95.30
2023-01-26T06:36:06.518Z,94.10
2023-01-26T06:38:35.792Z,93.30
2023-01-26T06:41:08.729Z,94.70
2023-01-26T06:43:37.871Z,95.20
2023-01-26T06:46:07.097Z,94.70
2023-01-26T06:48:36.871Z,93.90
2023-01-26T06:51:27.706Z,92.40
2023-01-26T06:53:58.356Z,93.40
2023-01-26T06:56:28.480Z,94.50
2023-01-26T06:58:56.338Z,95.80
2023-01-26T07:01:26.792Z,97.80
2023-01-26T07:03:55.905Z,95.30
2023-01-26T07:06:23.727Z,98.00
2023-01-26T07:08:58.992Z,93.40
2023-01-26T07:11:30.035Z,92.60
2023-01-26T07:13:58.138Z,91.60
2023-01-26T07:16:29.394Z,91.90
2023-01-26T07:19:03.462Z,91.60
2023-01-26T07:21:31.371Z,91.90
2023-01-26T07:24:08.013Z,96.10
2023-01-26T07:26:36.044Z,94.00
2023-01-26T07:29:03.923Z,93.60
2023-01-26T07:31:38.317Z,97.10
2023-01-26T07:34:10.350Z,97.50
2023-01-26T07:36:43.822Z,92.50
2023-01-26T07:39:13.121Z,95.00
2023-01-26T07:41:43.803Z,93.20
2023-01-26T07:44:12.058Z,93.90
2023-01-26T07:46:40.032Z,92.40
2023-01-26T07:49:12.648Z,95.90
2023-01-26T07:51:40.998Z,96.30
2023-01-26T07:54:13.884Z,94.40
2023-01-26T07:56:41.780Z,94.10
2023-01-26T07:59:12.910Z,94.50
2023-01-26T08:01:40.837Z,92.50
2023-01-26T08:04:08.855Z,91.50
2023-01-26T08:06:36.731Z,94.50
2023-01-26T08:09:05.302Z,93.50
2023-01-26T08:11:34.544Z,92.30
2023-01-26T08:14:05.255Z,95.50
2023-01-26T08:16:33.253Z,95.00
2023-01-26T08:19:03.860Z,91.70
2023-01-26T08:21:31.734Z,92.30
2023-01-26T08:24:03.489Z,93.30
2023-01-26T08:26:31.399Z,95.00
2023-01-26T08:29:00.599Z,92.40
2023-01-26T08:31:28.692Z,93.80
2023-01-26T08:34:02.495Z,94.20
2023-01-26T08:36:32.804Z,92.60
2023-01-26T08:39:02.596Z,91.40
2023-01-26T08:41:31.343Z,94.00
2023-01-26T08:44:00.608Z,94.20
2023-01-26T08:46:28.637Z,93.10
2023-01-26T08:48:58.249Z,92.20
2023-01-26T08:51:27.988Z,92.00
2023-01-26T08:53:55.866Z,94.20
2023-01-26T08:56:29.500Z,94.20
2023-01-26T08:59:01.582Z,96.50
2023-01-26T09:01:29.552Z,96.90
2023-01-26T09:03:58.269Z,94.80
2023-01-26T09:06:30.398Z,94.20
2023-01-26T09:08:58.347Z,93.80
2023-01-26T09:11:26.672Z,93.20
2023-01-26T09:13:59.560Z,94.40
2023-01-26T09:16:31.208Z,94.70
2023-01-26T09:18:59.215Z,93.80
2023-01-26T09:21:27.059Z,95.10
2023-01-26T09:24:04.166Z,98.00
2023-01-26T09:26:32.171Z,98.70
2023-01-26T09:29:03.623Z,98.20
2023-01-26T09:31:32.903Z,97.40
2023-01-26T09:34:03.997Z,96.90
2023-01-26T09:36:39.810Z,96.20
2023-01-26T09:39:09.164Z,95.80
2023-01-26T09:42:03.354Z,95.10
2023-01-26T09:44:37.265Z,94.90
2023-01-26T09:47:17.495Z,94.70
2023-01-26T09:49:49.755Z,94.30
2023-01-26T09:52:26.796Z,94.00
2023-01-26T09:54:58.544Z,92.80
2023-01-26T09:57:35.822Z,92.30
2023-01-26T10:00:09.559Z,91.90
2023-01-26T10:02:52.393Z,93.60
2023-01-26T10:05:41.009Z,94.50
2023-01-26T10:08:13.680Z,92.60
2023-01-26T10:10:46.030Z,92.30
2023-01-26T10:13:15.698Z,93.10
2023-01-26T10:15:45.957Z,93.70
2023-01-26T10:18:19.013Z,93.50
2023-01-26T10:21:02.384Z,92.40
2023-01-26T10:23:32.136Z,92.60
2023-01-26T10:26:12.248Z,93.00
2023-01-26T10:28:45.675Z,93.00
2023-01-26T10:31:17.089Z,93.10
2023-01-26T10:33:54.087Z,92.60
2023-01-26T10:36:31.741Z,93.70
2023-01-26T10:39:06.559Z,93.00
2023-01-26T10:41:34.774Z,91.60
2023-01-26T10:44:05.550Z,91.90
2023-01-26T10:46:35.301Z,93.40
2023-01-26T10:49:17.815Z,94.70
2023-01-26T10:51:47.633Z,94.30
2023-01-26T10:54:26.047Z,94.50
2023-01-26T10:56:56.556Z,94.70
2023-01-26T10:59:34.326Z,94.40
2023-01-26T11:02:04.293Z,94.20
2023-01-26T11:04:33.543Z,92.80
2023-01-26T11:07:26.256Z,92.40
2023-01-26T11:10:29.756Z,92.40
2023-01-26T11:13:16.501Z,92.50
2023-01-26T11:15:49.159Z,91.90
2023-01-26T11:18:29.403Z,92.80
2023-01-26T11:21:01.201Z,91.70
2023-01-26T11:23:54.456Z,91.60
2023-01-26T11:26:38.930Z,93.90
2023-01-26T11:29:35.464Z,95.10
2023-01-26T11:32:17.368Z,94.80
2023-01-26T11:35:02.533Z,92.50
2023-01-26T11:37:40.520Z,92.20
2023-01-26T11:40:38.784Z,94.50
2023-01-26T11:43:29.501Z,95.10
2023-01-26T11:46:36.511Z,94.50
2023-01-26T11:49:40.939Z,94.10
2023-01-26T11:52:28.086Z,92.50
2023-01-26T11:55:26.042Z,91.80
2023-01-26T11:58:22.683Z,92.00
2023-01-26T12:01:02.354Z,92.90
2023-01-26T12:03:41.626Z,93.30
2023-01-26T12:06:17.322Z,93.70
2023-01-26T12:08:55.033Z,94.20
2023-01-26T12:11:40.132Z,94.50
2023-01-26T12:14:32.299Z,92.80
2023-01-26T12:17:22.022Z,92.50
2023-01-26T12:20:04.395Z,92.90
2023-01-26T12:22:35.614Z,94.20
2023-01-26T12:25:28.319Z,92.60
2023-01-26T12:28:22.366Z,93.60
2023-01-26T12:30:56.537Z,94.20
2023-01-26T12:33:27.580Z,94.40
2023-01-26T12:36:10.397Z,93.90
2023-01-26T12:39:01.399Z,93.50
2023-01-26T12:41:39.915Z,94.50
2023-01-26T12:44:34.441Z,94.60
2023-01-26T12:47:21.651Z,93.60
2023-01-26T12:49:55.146Z,94.20
2023-01-26T12:52:35.526Z,94.00
2023-01-26T12:55:16.279Z,92.40
2023-01-26T12:57:46.975Z,93.70
2023-01-26T13:00:22.722Z,94.90
2023-01-26T13:02:54.800Z,94.30
2023-01-26T13:05:28.144Z,94.60
2023-01-26T13:08:23.799Z,95.30
2023-01-26T13:13:55.285Z,94.20
2023-01-26T13:16:35.351Z,95.90
2023-01-26T13:19:06.056Z,95.40
2023-01-26T13:21:45.385Z,94.50
2023-01-26T13:24:59.679Z,96.40
2023-01-26T13:27:47.176Z,95.90
2023-01-26T13:30:50.229Z,93.60
2023-01-26T13:33:25.579Z,93.10
2023-01-26T13:36:13.066Z,94.10
2023-01-26T13:38:44.525Z,95.50
2023-01-26T13:41:20.623Z,95.40
2023-01-26T13:46:57.942Z,93.90
2023-01-26T13:49:27.722Z,94.20
2023-01-26T13:52:05.301Z,95.50
2023-01-26T13:54:34.131Z,95.30
2023-01-26T13:57:05.134Z,94.80
2023-01-26T13:59:34.100Z,94.10
2023-01-26T14:02:02.489Z,94.00
2023-01-26T14:04:37.734Z,94.10
2023-01-26T14:07:13.453Z,94.90
2023-01-26T14:09:46.149Z,95.60
2023-01-26T14:12:23.680Z,97.30
2023-01-26T14:14:54.096Z,94.60
2023-01-26T14:17:28.707Z,94.00
2023-01-26T14:19:57.156Z,93.50
2023-01-26T14:22:28.041Z,94.90
2023-01-26T14:25:12.637Z,94.50
2023-01-26T14:27:45.316Z,95.50
2023-01-26T14:30:28.121Z,95.90
2023-01-26T14:33:08.637Z,95.00
2023-01-26T14:38:44.656Z,96.30
2023-01-26T14:41:24.866Z,96.90
2023-01-26T14:43:58.664Z,98.00
2023-01-26T14:46:46.381Z,97.60
2023-01-26T14:49:18.365Z,98.20
2023-01-26T14:51:52.779Z,98.40
2023-01-26T14:54:28.256Z,98.10
2023-01-26T14:57:02.336Z,98.50
2023-01-26T14:59:38.407Z,99.20
2023-01-26T15:02:16.244Z,99.00
2023-01-26T15:04:49.787Z,98.90
2023-01-26T15:07:44.709Z,99.40
2023-01-26T15:10:36.122Z,99.60
2023-01-26T15:13:20.399Z,99.90
2023-01-26T15:16:06.514Z,99.90
2023-01-26T15:18:35.257Z,99.90
2023-01-26T15:21:13.203Z,99.90
2023-01-26T15:23:45.035Z,99.70
2023-01-26T15:26:29.936Z,99.10
2023-01-26T15:29:06.042Z,98.70
2023-01-26T15:31:41.522Z,98.40
2023-01-26T15:34:31.602Z,98.60
2023-01-26T15:37:20.799Z,99.20
2023-01-26T15:39:51.676Z,99.70
2023-01-26T15:42:24.473Z,99.50
2023-01-26T15:45:01.547Z,99.60
2023-01-26T15:47:39.831Z,99.70
2023-01-26T15:50:27.732Z,99.90
2023-01-26T15:52:55.931Z,99.90
2023-01-26T15:55:34.734Z,99.90
2023-01-26T15:58:08.782Z,99.40
2023-01-26T16:00:42.903Z,99.60
2023-01-26T16:03:17.563Z,99.90
2023-01-26T16:05:54.824Z,99.90
2023-01-26T16:08:31.184Z,99.90
2023-01-26T16:11:05.347Z,99.80
2023-01-26T16:13:36.065Z,99.40
2023-01-26T16:16:10.525Z,99.10
2023-01-26T16:18:48.716Z,99.90
2023-01-26T16:21:19.793Z,99.70
2023-01-26T16:23:48.133Z,99.90
2023-01-26T16:26:18.292Z,97.70
2023-01-26T16:28:52.237Z,97.80
2023-01-26T16:31:22.131Z,98.80
2023-01-26T16:33:52.003Z,99.40
2023-01-26T16:36:21.070Z,98.70
2023-01-26T16:38:51.962Z,98.90
2023-01-26T16:41:24.910Z,99.70
2023-01-26T16:43:54.286Z,99.80
2023-01-26T16:46:29.131Z,99.30
2023-01-26T16:49:01.339Z,99.60
2023-01-26T16:51:32.089Z,99.90
2023-01-26T16:54:08.986Z,99.90
2023-01-26T16:56:46.262Z,99.80
2023-01-26T16:59:14.115Z,99.90
2023-01-26T17:01:43.217Z,99.90
2023-01-26T17:04:21.747Z,99.90
2023-01-26T17:06:54.978Z,99.90
2023-01-26T17:09:25.879Z,99.90
2023-01-26T17:11:56.185Z,99.90
2023-01-26T17:14:24.391Z,99.90
2023-01-26T17:16:55.323Z,99.90
2023-01-26T17:19:30.682Z,99.90
2023-01-26T17:22:01.989Z,99.90
2023-01-26T17:24:32.329Z,99.90
2023-01-26T17:27:03.383Z,99.90
2023-01-26T17:29:34.388Z,99.90
2023-01-26T17:32:02.304Z,99.90
2023-01-26T17:34:34.113Z,99.90
2023-01-26T17:37:02.011Z,99.90
2023-01-26T17:39:30.074Z,99.90
2023-01-26T17:42:01.380Z,99.90
2023-01-26T17:44:29.255Z,99.90
2023-01-26T17:47:04.457Z,99.90
2023-01-26T17:49:36.133Z,99.90
2023-01-26T17:52:04.549Z,99.60
2023-01-26T17:54:32.583Z,99.90
2023-01-26T17:57:00.455Z,99.90
2023-01-26T17:59:34.455Z,99.90
2023-01-26T18:02:02.372Z,99.90
2023-01-26T18:04:37.152Z,99.90
2023-01-26T18:07:05.049Z,99.90
2023-01-26T18:09:35.309Z,99.90
2023-01-26T18:12:03.183Z,99.90
2023-01-26T18:14:34.326Z,99.70
2023-01-26T18:17:05.280Z,99.90
2023-01-26T18:19:34.519Z,99.90
2023-01-26T18:22:22.445Z,99.90
2023-01-26T18:24:56.100Z,99.90
2023-01-26T18:27:24.043Z,99.90
2023-01-26T18:29:54.923Z,99.90
2023-01-26T18:32:29.975Z,99.90
2023-01-26T18:34:59.213Z,99.80
2023-01-26T18:37:32.159Z,98.30
2023-01-26T18:40:04.573Z,98.50
2023-01-26T18:42:37.856Z,97.80
2023-01-26T18:45:12.492Z,98.30
2023-01-26T18:47:46.573Z,99.00
2023-01-26T18:50:15.992Z,99.80
2023-01-26T18:52:49.693Z,99.90
2023-01-26T18:55:20.710Z,99.90
2023-01-26T18:57:51.520Z,99.90
2023-01-26T19:00:20.471Z,99.90
2023-01-26T19:02:51.221Z,99.90
2023-01-26T19:05:20.503Z,99.90
2023-01-26T19:07:54.440Z,99.90
2023-01-26T19:10:22.348Z,99.80
2023-01-26T19:12:56.451Z,99.90
2023-01-26T19:15:33.595Z,99.90
2023-01-26T19:18:04.444Z,99.40
2023-01-26T19:20:41.241Z,99.80
2023-01-26T19:23:09.432Z,99.90
2023-01-26T19:25:43.533Z,99.90
2023-01-26T19:28:19.705Z,99.90
2023-01-26T19:30:50.419Z,99.90
2023-01-26T19:33:31.623Z,99.90
2023-01-26T19:36:03.594Z,99.90
2023-01-26T19:38:36.209Z,99.90
2023-01-26T19:41:04.118Z,99.90
2023-01-26T19:43:38.116Z,99.90
2023-01-26T19:46:11.597Z,99.90
2023-01-26T19:48:40.189Z,99.90
2023-01-26T19:51:12.580Z,99.90
2023-01-26T19:53:42.848Z,99.90
2023-01-26T19:56:12.936Z,99.90
2023-01-26T19:58:51.730Z,99.90
2023-01-26T20:01:35.420Z,99.90
2023-01-26T20:04:10.485Z,99.90
2023-01-26T20:06:57.383Z,99.90
2023-01-26T20:09:33.286Z,99.90
2023-01-26T20:12:06.027Z,99.90
2023-01-26T20:14:40.005Z,99.90
2023-01-26T20:17:20.033Z,99.90
2023-01-26T20:20:03.393Z,99.80
2023-01-26T20:22:38.495Z,99.90
2023-01-26T20:25:15.655Z,99.90
2023-01-26T20:27:52.827Z,99.90
2023-01-26T20:30:21.769Z,99.90
2023-01-26T20:32:53.852Z,99.90
2023-01-26T20:35:21.856Z,99.90
2023-01-26T20:38:10.965Z,99.90
2023-01-26T20:40:41.960Z,99.90
2023-01-26T20:43:13.088Z,99.90
2023-01-26T20:45:41.770Z,99.90
2023-01-26T20:48:09.692Z,99.90
2023-01-26T20:50:40.594Z,99.90
2023-01-26T20:53:12.539Z,99.90
2023-01-26T20:55:45.424Z,99.90
2023-01-26T20:58:28.284Z,99.90
2023-01-26T21:01:07.100Z,99.90
2023-01-26T21:03:35.903Z,99.90
2023-01-26T21:06:04.888Z,99.90
2023-01-26T21:08:36.587Z,99.90
2023-01-26T21:11:13.207Z,99.90
2023-01-26T21:13:42.259Z,99.90
2023-01-26T21:16:15.397Z,99.90
2023-01-26T21:18:43.882Z,99.90
2023-01-26T21:21:17.421Z,99.90
2023-01-26T21:24:09.544Z,99.90
2023-01-26T21:26:40.543Z,99.90
2023-01-26T21:29:33.133Z,99.90
2023-01-26T21:32:10.805Z,99.90
2023-01-26T21:34:48.765Z,99.90
2023-01-26T21:37:18.784Z,99.90
2023-01-26T21:39:54.111Z,99.90
2023-01-26T21:42:28.151Z,99.90
2023-01-26T21:45:14.787Z,99.90
2023-01-26T21:47:42.828Z,99.90
2023-01-26T21:50:14.008Z,99.90
2023-01-26T21:52:59.240Z,99.90
2023-01-26T21:55:37.567Z,99.90
2023-01-26T21:58:22.893Z,99.90
2023-01-26T22:01:09.216Z,99.90
2023-01-26T22:03:46.045Z,99.90
2023-01-26T22:06:19.521Z,99.90
2023-01-26T22:08:53.434Z,99.90
2023-01-26T22:11:28.909Z,99.90
2023-01-26T22:13:56.867Z,99.90
2023-01-26T22:16:30.195Z,99.90
2023-01-26T22:18:58.088Z,99.90
2023-01-26T22:21:28.449Z,99.90
2023-01-26T22:24:11.801Z,99.90
2023-01-26T22:26:41.727Z,99.90
2023-01-26T22:29:11.600Z,99.90
2023-01-26T22:31:47.606Z,99.90
2023-01-26T22:34:18.023Z,99.90
2023-01-26T22:36:48.721Z,99.90
2023-01-26T22:39:16.895Z,99.90
2023-01-26T22:41:52.343Z,99.90
2023-01-26T22:44:20.268Z,99.90
2023-01-26T22:47:02.033Z,99.90
2023-01-26T22:49:32.278Z,99.90
2023-01-26T22:52:14.001Z,99.90
2023-01-26T22:54:47.741Z,99.90
2023-01-26T22:57:17.144Z,99.90
2023-01-26T22:59:48.058Z,99.90
2023-01-26T23:02:16.009Z,99.90
2023-01-26T23:04:48.158Z,99.90
2023-01-26T23:07:34.855Z,99.90
2023-01-26T23:10:05.168Z,99.90
2023-01-26T23:12:34.395Z,99.90
2023-01-26T23:15:10.352Z,99.90
2023-01-26T23:17:41.032Z,99.90
2023-01-26T23:20:13.220Z,99.90
2023-01-26T23:22:44.127Z,99.90
2023-01-26T23:25:29.468Z,99.90
2023-01-26T23:27:58.694Z,99.90
2023-01-26T23:30:41.707Z,99.90
2023-01-26T23:33:19.138Z,99.90
2023-01-26T23:35:53.135Z,99.90
2023-01-26T23:38:29.892Z,99.90
2023-01-26T23:41:01.330Z,99.90
2023-01-26T23:43:45.627Z,99.90
2023-01-26T23:46:13.983Z,99.90
2023-01-26T23:48:50.796Z,99.90
2023-01-26T23:51:24.598Z,99.90
2023-01-26T23:53:52.418Z,99.90
2023-01-26T23:56:23.367Z,99.90
2023-01-26T23:59:02.661Z,99.90
